Time;durP1;ratioP1;P1;durP2;ratioP2;P2;SDS_P1;SDS_P2;PMS_P1;PMS_P2;Temp;Humidity;BMP_temperature;BMP_pressure;BME280_temperature;BME280_humidity;BME280_pressure;Samples;Min_cycle;Max_cycle;Signal;HPM_P1;HPM_P2
2022/08/15 00:00:37;;;;;;;15.57;14.18;;;;;;;20.90;70.55;99647.13;4952631;28;20086;-73
2022/08/15 00:03:04;;;;;;;16.88;15.38;;;;;;;20.89;70.90;99639.19;4952623;28;20031;-73
2022/08/15 00:05:33;;;;;;;16.67;15.27;;;;;;;20.90;70.92;99641.75;4955418;28;20043;-73
2022/08/15 00:07:58;;;;;;;16.83;15.15;;;;;;;20.92;71.82;99645.22;4955909;28;20051;-73
2022/08/15 00:10:24;;;;;;;15.23;13.93;;;;;;;20.94;70.64;99637.94;4955860;28;20054;-73
2022/08/15 00:12:49;;;;;;;16.25;14.75;;;;;;;20.97;70.38;99643.09;4954935;28;20050;-73
2022/08/15 00:15:18;;;;;;;18.30;16.67;;;;;;;21.04;69.74;99637.34;4955668;29;20043;-73
2022/08/15 00:17:45;;;;;;;16.15;14.57;;;;;;;21.06;70.14;99636.28;4955744;28;20042;-74
2022/08/15 00:20:11;;;;;;;15.20;13.75;;;;;;;21.06;69.65;99632.75;4955783;28;20133;-73
2022/08/15 00:22:51;;;;;;;16.10;14.70;;;;;;;21.05;70.61;99634.56;4955035;28;20047;-73
2022/08/15 00:25:18;;;;;;;15.85;14.13;;;;;;;20.95;70.56;99628.91;4955421;29;20620;-73
2022/08/15 00:27:43;;;;;;;14.73;13.32;;;;;;;20.94;70.72;99627.22;4955564;28;20409;-73
2022/08/15 00:30:10;;;;;;;15.30;14.02;;;;;;;20.89;70.57;99626.63;4953698;29;20035;-73
2022/08/15 00:32:36;;;;;;;14.18;12.85;;;;;;;20.81;70.48;99615.53;4955169;28;20047;-73
2022/08/15 00:35:35;;;;;;;17.63;15.95;;;;;;;20.80;70.51;99619.16;4954630;28;20027;-74
2022/08/15 00:37:55;;;;;;;17.13;15.52;;;;;;;20.63;71.21;99611.34;4951880;29;20114;-73
2022/08/15 00:40:24;;;;;;;16.85;15.20;;;;;;;20.53;72.20;99616.34;4953764;29;20039;-74
2022/08/15 00:42:50;;;;;;;16.25;14.85;;;;;;;20.50;72.50;99629.97;4954892;28;20049;-73
2022/08/15 00:45:17;;;;;;;16.60;15.15;;;;;;;20.52;71.93;99625.38;4950001;29;20643;-73
2022/08/15 00:47:42;;;;;;;18.50;16.85;;;;;;;20.50;73.66;99621.91;4955085;28;20066;-73
2022/08/15 00:50:11;;;;;;;17.10;15.65;;;;;;;20.49;72.63;99609.50;4953215;28;20056;-73
2022/08/15 00:52:36;;;;;;;16.35;14.93;;;;;;;20.47;72.77;99606.88;4948579;29;20075;-73
2022/08/15 00:55:10;;;;;;;18.50;16.83;;;;;;;20.44;73.42;99612.44;4950516;29;20027;-73
2022/08/15 00:57:41;;;;;;;18.77;17.17;;;;;;;20.43;73.94;99609.84;4955205;28;20115;-73
2022/08/15 01:00:20;;;;;;;18.92;17.33;;;;;;;20.32;74.45;99614.03;4950102;29;20055;-73
2022/08/15 01:02:46;;;;;;;16.65;15.10;;;;;;;20.32;74.09;99608.69;4950941;28;20034;-73
2022/08/15 01:05:13;;;;;;;16.70;15.23;;;;;;;20.35;74.02;99604.94;4957253;28;20070;-73
2022/08/15 01:07:38;;;;;;;17.67;16.15;;;;;;;20.38;74.01;99603.91;4967631;28;20035;-73
2022/08/15 01:10:06;;;;;;;17.73;15.98;;;;;;;20.44;73.73;99593.69;4954607;28;20379;-73
2022/08/15 01:12:32;;;;;;;17.85;16.25;;;;;;;20.49;73.73;99594.25;4951145;29;20035;-73
2022/08/15 01:15:02;;;;;;;16.40;14.95;;;;;;;20.55;73.67;99595.72;4954675;28;20245;-73
2022/08/15 01:17:30;;;;;;;18.60;16.95;;;;;;;20.58;73.56;99592.84;4954308;28;20118;-73
2022/08/15 01:20:06;;;;;;;18.98;17.17;;;;;;;20.57;74.50;99602.72;4954571;28;20031;-73
2022/08/15 01:23:03;;;;;;;18.10;16.52;;;;;;;20.61;74.69;99597.16;4966011;28;20050;-74
2022/08/15 01:25:47;;;;;;;15.95;14.40;;;;;;;20.52;74.13;99595.88;4951375;28;20051;-73
2022/08/15 01:28:17;;;;;;;18.58;16.52;;;;;;;20.40;74.47;99589.44;4950529;29;20077;-73
2022/08/15 01:30:58;;;;;;;18.67;16.95;;;;;;;20.35;75.14;99599.59;4968742;28;20114;-73
2022/08/15 01:33:26;;;;;;;16.13;14.68;;;;;;;20.31;74.80;99606.13;4954147;28;20031;-73
2022/08/15 01:35:54;;;;;;;20.95;18.83;;;;;;;20.29;74.97;99606.19;4952948;29;20031;-73
2022/08/15 01:38:30;;;;;;;18.65;17.02;;;;;;;20.26;76.25;99605.53;4952343;29;20035;-73
2022/08/15 01:41:04;;;;;;;20.60;18.70;;;;;;;20.24;75.91;99594.03;4951710;29;20401;-74
2022/08/15 01:43:33;;;;;;;21.67;19.70;;;;;;;20.20;75.09;99595.16;4953459;29;20425;-74
2022/08/15 01:46:07;;;;;;;19.13;17.33;;;;;;;20.17;76.14;99595.34;4948616;29;20046;-73
2022/08/15 01:48:41;;;;;;;19.65;17.98;;;;;;;20.09;76.10;99588.63;4968842;28;20031;-73
2022/08/15 01:51:07;;;;;;;18.55;16.80;;;;;;;20.03;76.70;99585.50;4952743;29;20122;-74
2022/08/15 01:53:51;;;;;;;17.63;15.90;;;;;;;20.04;76.46;99582.72;4952689;29;20486;-73
2022/08/15 01:56:39;;;;;;;19.75;17.85;;;;;;;20.09;76.09;99583.28;4952415;28;20046;-74
2022/08/15 01:59:10;;;;;;;19.17;17.13;;;;;;;20.09;76.16;99579.75;4965074;28;20031;-74
2022/08/15 02:01:43;;;;;;;22.13;17.92;;;;;;;20.05;76.69;99573.72;4965311;28;20027;-73
2022/08/15 02:04:12;;;;;;;19.02;17.08;;;;;;;20.06;76.17;99578.13;4953179;28;20399;-73
2022/08/15 02:06:39;;;;;;;22.52;20.42;;;;;;;20.09;76.33;99574.38;4949840;29;20039;-73
2022/08/15 02:09:14;;;;;;;23.48;21.13;;;;;;;20.10;75.98;99574.31;4950291;29;20118;-74
2022/08/15 02:11:39;;;;;;;22.13;20.00;;;;;;;20.11;75.82;99572.50;4968223;28;20045;-74
2022/08/15 02:14:08;;;;;;;17.60;15.77;;;;;;;20.09;76.01;99572.56;4953041;28;20401;-73
2022/08/15 02:16:36;;;;;;;19.13;17.23;;;;;;;20.05;76.39;99563.00;4953165;28;20046;-74
2022/08/15 02:19:07;;;;;;;18.85;16.92;;;;;;;19.99;76.67;99567.88;4953531;28;20480;-74
2022/08/15 02:21:34;;;;;;;19.40;17.40;;;;;;;19.87;76.59;99564.97;4953047;28;20118;-74
2022/08/15 02:24:00;;;;;;;20.42;18.52;;;;;;;19.81;77.09;99570.72;4945721;29;20045;-74
2022/08/15 02:26:28;;;;;;;20.67;18.48;;;;;;;19.78;77.46;99564.66;4957178;28;20031;-73
2022/08/15 02:28:54;;;;;;;19.83;18.02;;;;;;;19.70;77.73;99568.69;4953130;28;20042;-73
2022/08/15 02:31:24;;;;;;;20.90;18.90;;;;;;;19.72;77.57;99575.75;4952204;28;20086;-74
2022/08/15 02:33:57;;;;;;;18.23;16.52;;;;;;;19.66;77.67;99567.13;4952113;29;20118;-73
2022/08/15 02:36:24;;;;;;;21.58;19.63;;;;;;;19.62;77.92;99573.59;4952055;29;20545;-73
2022/08/15 02:38:50;;;;;;;19.90;18.27;;;;;;;19.53;77.93;99573.25;4960419;28;20038;-73
2022/08/15 02:41:31;;;;;;;19.98;17.90;;;;;;;19.48;78.23;99573.50;4950748;28;20124;-74
2022/08/15 02:43:57;;;;;;;18.92;17.33;;;;;;;19.37;78.05;99571.47;4967334;28;20119;-73
2022/08/15 02:46:23;;;;;;;21.02;18.70;;;;;;;19.33;78.04;99574.41;4953255;28;20043;-73
2022/08/15 02:48:53;;;;;;;22.83;20.65;;;;;;;19.26;78.70;99573.91;4951310;29;20038;-73
2022/08/15 02:51:21;;;;;;;21.90;19.75;;;;;;;19.16;80.33;99573.56;4952454;28;20518;-74
2022/08/15 02:53:50;;;;;;;21.38;19.38;;;;;;;19.08;81.17;99574.94;4951253;29;20031;-73
2022/08/15 02:56:20;;;;;;;21.88;19.92;;;;;;;18.97;82.09;99568.41;4952568;28;20158;-73
2022/08/15 02:58:45;;;;;;;23.60;21.30;;;;;;;18.92;82.15;99566.94;4967286;28;20035;-73
2022/08/15 03:01:12;;;;;;;19.92;18.02;;;;;;;18.88;83.93;99562.69;4947878;29;20119;-73
2022/08/15 03:03:39;;;;;;;17.15;15.60;;;;;;;18.88;82.59;99552.00;4935117;29;20035;-73
2022/08/15 03:06:08;;;;;;;18.88;17.25;;;;;;;18.88;82.15;99549.31;4949129;29;20041;-73
2022/08/15 03:08:35;;;;;;;20.63;18.85;;;;;;;18.88;81.70;99557.34;4947274;28;20031;-73
2022/08/15 03:11:03;;;;;;;24.42;22.15;;;;;;;18.90;81.90;99560.78;4955428;28;20031;-74
2022/08/15 03:13:31;;;;;;;26.77;24.08;;;;;;;18.93;83.00;99565.97;4951401;29;20027;-73
2022/08/15 03:15:58;;;;;;;25.67;22.98;;;;;;;18.96;83.00;99555.09;4950569;29;20050;-73
2022/08/15 03:18:32;;;;;;;23.52;21.52;;;;;;;18.94;82.70;99565.00;4964331;28;20031;-74
2022/08/15 03:21:06;;;;;;;19.70;17.73;;;;;;;18.86;81.73;99565.44;4965764;28;20039;-74
2022/08/15 03:23:32;;;;;;;20.83;18.75;;;;;;;18.75;81.60;99570.53;4951038;29;20042;-74
2022/08/15 03:26:00;;;;;;;24.38;21.90;;;;;;;18.72;82.98;99566.19;4951500;28;20034;-73
2022/08/15 03:28:28;;;;;;;20.45;18.50;;;;;;;18.65;83.42;99561.25;4956261;28;20034;-73
2022/08/15 03:30:59;;;;;;;20.50;18.60;;;;;;;18.50;85.88;99558.47;4955371;29;20035;-73
2022/08/15 03:33:27;;;;;;;20.63;18.73;;;;;;;18.48;85.04;99565.72;4953833;29;20556;-73
2022/08/15 03:35:52;;;;;;;19.55;17.80;;;;;;;18.56;85.05;99562.63;4954567;29;20027;-73
2022/08/15 03:38:19;;;;;;;22.65;20.55;;;;;;;18.47;86.42;99574.69;4971125;28;20031;-73
2022/08/15 03:40:47;;;;;;;24.75;22.27;;;;;;;18.39;88.18;99572.41;4956397;28;20038;-73
2022/08/15 03:43:18;;;;;;;28.60;25.83;;;;;;;18.43;88.60;99578.44;4952444;29;20494;-74
2022/08/15 03:45:50;;;;;;;19.23;17.42;;;;;;;18.40;87.16;99571.47;4954087;29;20031;-73
2022/08/15 03:48:25;;;;;;;19.60;17.88;;;;;;;18.40;84.92;99574.13;4956275;28;20027;-73
2022/08/15 03:50:52;;;;;;;19.85;18.05;;;;;;;18.36;84.42;99575.22;4953649;29;20031;-73
2022/08/15 03:53:19;;;;;;;18.10;16.50;;;;;;;18.34;84.13;99573.63;4957004;28;20039;-73
2022/08/15 03:55:45;;;;;;;18.02;16.35;;;;;;;18.32;84.97;99572.81;4952004;29;20045;-73
2022/08/15 03:58:10;;;;;;;20.23;17.70;;;;;;;18.26;85.30;99589.16;4954391;29;20031;-74
2022/08/15 04:00:44;;;;;;;22.33;19.83;;;;;;;18.22;86.68;99580.47;4954359;29;20034;-74
2022/08/15 04:03:19;;;;;;;19.77;17.98;;;;;;;18.18;87.69;99573.53;4970143;28;20081;-73
2022/08/15 04:05:51;;;;;;;22.10;19.80;;;;;;;18.23;87.39;99587.50;4967413;28;20027;-73
2022/08/15 04:08:20;;;;;;;25.52;22.85;;;;;;;18.31;87.98;99584.44;4970842;28;20560;-73
2022/08/15 04:10:50;;;;;;;22.15;19.83;;;;;;;18.36;88.48;99590.41;4954210;29;20031;-73
2022/08/15 04:13:24;;;;;;;24.48;22.20;;;;;;;18.43;88.99;99594.47;4962810;28;20031;-73
2022/08/15 04:15:52;;;;;;;23.13;20.73;;;;;;;18.42;86.88;99594.56;4970660;28;20394;-74
2022/08/15 04:18:17;;;;;;;24.95;22.75;;;;;;;18.38;87.09;99594.72;4970581;28;20031;-74
2022/08/15 04:20:43;;;;;;;21.95;19.90;;;;;;;18.34;86.92;99593.16;4962240;28;20041;-74
2022/08/15 04:23:09;;;;;;;22.13;19.83;;;;;;;18.35;87.75;99586.88;4952953;28;20038;-73
2022/08/15 04:25:41;;;;;;;22.50;20.20;;;;;;;18.45;87.69;99587.25;4950926;29;20039;-73
2022/08/15 04:28:08;;;;;;;25.00;22.77;;;;;;;18.50;88.37;99570.97;4953062;29;20054;-74
2022/08/15 04:30:37;;;;;;;28.13;25.33;;;;;;;18.64;88.90;99570.22;4950991;29;20031;-74
2022/08/15 04:33:16;;;;;;;35.78;30.27;;;;;;;18.80;88.24;99572.00;4951125;29;20097;-74
2022/08/15 04:35:55;;;;;;;33.50;28.75;;;;;;;18.94;88.32;99573.91;4958417;28;20035;-74
2022/08/15 04:38:21;;;;;;;28.45;25.65;;;;;;;19.00;87.79;99583.41;4962251;28;20031;-74
2022/08/15 04:40:48;;;;;;;26.38;23.92;;;;;;;19.05;87.32;99570.63;4954022;29;20035;-74
2022/08/15 04:43:16;;;;;;;27.73;23.77;;;;;;;19.09;87.45;99577.53;4952509;28;20035;-74
2022/08/15 04:45:42;;;;;;;23.98;21.67;;;;;;;19.18;87.10;99573.47;4954917;28;20070;-74
2022/08/15 04:48:14;;;;;;;27.85;25.20;;;;;;;19.21;87.25;99574.16;4955636;28;20042;-74
2022/08/15 04:50:40;;;;;;;29.08;26.30;;;;;;;19.29;86.45;99579.06;4961038;28;20121;-74
2022/08/15 04:53:11;;;;;;;24.77;21.67;;;;;;;19.27;87.01;99571.13;4969317;28;20461;-74
2022/08/15 04:55:41;;;;;;;24.27;22.05;;;;;;;19.22;86.41;99575.00;4952315;29;20039;-74
2022/08/15 04:58:09;;;;;;;25.63;23.10;;;;;;;19.20;87.30;99569.78;4951200;29;20080;-74
2022/08/15 05:00:40;;;;;;;29.98;26.80;;;;;;;19.30;87.80;99569.22;4952926;29;20035;-74
2022/08/15 05:03:21;;;;;;;32.40;28.98;;;;;;;19.43;88.31;99562.22;4946759;29;20027;-74
2022/08/15 05:05:57;;;;;;;39.13;33.17;;;;;;;19.58;87.49;99568.50;4947538;29;20035;-74
2022/08/15 05:08:27;;;;;;;31.85;28.65;;;;;;;19.73;87.01;99556.03;4968612;28;20038;-74
2022/08/15 05:11:05;;;;;;;35.97;32.28;;;;;;;19.88;86.87;99561.34;4953499;29;20077;-74
2022/08/15 05:13:35;;;;;;;33.88;30.38;;;;;;;20.00;85.85;99548.19;4950961;29;20031;-73
2022/08/15 05:16:04;;;;;;;32.72;28.52;;;;;;;20.08;85.56;99552.09;4953314;29;20085;-74
2022/08/15 05:18:37;;;;;;;35.90;32.03;;;;;;;20.20;85.41;99541.59;4966088;28;20074;-74
2022/08/15 05:21:03;;;;;;;33.92;30.33;;;;;;;20.29;84.49;99538.34;4954434;28;20035;-74
2022/08/15 05:23:31;;;;;;;35.33;31.48;;;;;;;20.35;84.03;99544.19;4958064;28;20118;-74
2022/08/15 05:25:58;;;;;;;37.30;32.28;;;;;;;20.44;83.65;99542.75;4953242;29;20039;-74
2022/08/15 05:28:24;;;;;;;36.90;33.00;;;;;;;20.51;83.10;99545.91;4954268;28;20554;-74
2022/08/15 05:30:52;;;;;;;35.03;31.17;;;;;;;20.57;83.36;99541.06;4961713;28;20031;-74
2022/08/15 05:33:25;;;;;;;30.85;27.55;;;;;;;20.62;83.16;99543.47;4952933;29;20506;-73
2022/08/15 05:35:54;;;;;;;30.73;25.48;;;;;;;20.60;83.58;99542.69;4953040;29;20043;-73
2022/08/15 05:38:23;;;;;;;29.30;26.38;;;;;;;20.69;83.49;99541.22;4949563;29;20405;-72
2022/08/15 05:40:57;;;;;;;32.17;28.88;;;;;;;20.77;82.76;99533.56;4952966;29;20035;-73
2022/08/15 05:43:43;;;;;;;36.70;32.47;;;;;;;20.88;82.76;99532.84;4952445;29;20031;-73
2022/08/15 05:46:24;;;;;;;30.85;27.85;;;;;;;20.97;82.05;99534.97;4951912;29;20047;-73
2022/08/15 05:49:00;;;;;;;31.15;27.95;;;;;;;21.01;81.50;99541.81;4966086;28;20031;-73
2022/08/15 05:51:38;;;;;;;27.73;25.13;;;;;;;21.07;81.07;99540.59;4950847;29;20035;-73
2022/08/15 05:54:23;;;;;;;38.17;34.05;;;;;;;21.19;81.25;99545.13;4968803;28;20738;-72
2022/08/15 05:57:09;;;;;;;36.13;27.48;;;;;;;21.29;80.24;99551.63;4950689;29;20035;-73
2022/08/15 05:59:42;;;;;;;34.25;30.33;;;;;;;21.31;79.41;99551.53;4950076;29;20406;-73
2022/08/15 06:02:16;;;;;;;32.35;28.52;;;;;;;21.24;79.15;99553.75;4952364;29;20031;-73
2022/08/15 06:04:58;;;;;;;41.03;32.30;;;;;;;21.26;80.08;99550.97;4947105;29;20050;-73
2022/08/15 06:07:25;;;;;;;41.67;36.03;;;;;;;21.34;79.21;99554.88;4951882;29;20035;-72
2022/08/15 06:09:58;;;;;;;32.22;28.85;;;;;;;21.41;78.26;99556.22;4952187;29;20034;-73
2022/08/15 06:12:42;;;;;;;27.40;24.70;;;;;;;21.48;78.13;99561.16;4951976;29;20039;-71
2022/08/15 06:15:14;;;;;;;31.42;28.10;;;;;;;21.59;77.52;99569.38;4950179;29;20031;-73
2022/08/15 06:17:54;;;;;;;37.10;33.05;;;;;;;21.69;77.80;99562.41;4959790;28;20043;-73
2022/08/15 06:20:24;;;;;;;37.15;32.05;;;;;;;21.79;76.82;99558.13;4951683;29;20041;-73
2022/08/15 06:23:15;;;;;;;28.15;25.23;;;;;;;21.86;76.37;99550.53;4949089;29;20117;-73
2022/08/15 06:26:17;;;;;;;30.23;26.92;;;;;;;21.92;75.57;99560.84;4966589;28;20023;-73
2022/08/15 06:29:18;;;;;;;33.50;29.98;;;;;;;21.99;75.50;99567.53;4948782;29;20027;-73
2022/08/15 06:31:53;;;;;;;27.65;24.75;;;;;;;22.08;74.95;99556.13;4948845;29;20042;-73
2022/08/15 06:34:40;;;;;;;27.65;24.75;;;;;;;22.12;74.31;99548.72;4949047;29;20520;-72
2022/08/15 06:37:16;;;;;;;28.65;25.63;;;;;;;22.15;74.13;99545.81;4951229;29;20031;-73
2022/08/15 06:40:22;;;;;;;25.38;22.70;;;;;;;22.15;73.83;99539.59;4951584;29;20094;-73
2022/08/15 06:42:47;;;;;;;32.75;29.33;;;;;;;22.21;73.69;99545.41;4947680;28;20123;-73
2022/08/15 06:45:21;;;;;;;29.50;26.60;;;;;;;22.24;72.98;99544.34;4951927;29;20076;-72
2022/08/15 06:47:48;;;;;;;26.15;23.63;;;;;;;22.28;73.15;99541.34;4951444;29;20032;-73
2022/08/15 06:50:19;;;;;;;27.42;24.83;;;;;;;22.49;72.35;99554.25;4951853;29;20031;-73
2022/08/15 06:52:55;;;;;;;32.25;28.95;;;;;;;22.66;72.07;99540.47;4951766;29;20450;-73
2022/08/15 06:55:23;;;;;;;28.70;25.65;;;;;;;22.77;71.33;99531.63;4951460;29;20038;-73
2022/08/15 06:58:05;;;;;;;25.17;22.52;;;;;;;22.78;70.90;99532.47;4951635;29;20050;-72
2022/08/15 07:00:47;;;;;;;31.83;28.38;;;;;;;22.86;70.43;99530.06;4951336;28;20516;-72
2022/08/15 07:03:48;;;;;;;22.45;20.45;;;;;;;22.97;70.04;99522.09;4954755;28;20417;-73
2022/08/15 07:06:32;;;;;;;28.83;25.27;;;;;;;23.06;69.32;99523.28;4972564;28;20086;-73
2022/08/15 07:09:05;;;;;;;31.42;28.00;;;;;;;23.21;69.03;99514.03;4958025;28;20035;-73
2022/08/15 07:11:46;;;;;;;27.17;24.65;;;;;;;23.33;68.11;99515.81;4957123;28;20067;-73
2022/08/15 07:14:30;;;;;;;24.52;22.20;;;;;;;23.39;68.01;99511.78;4973666;28;20121;-73
2022/08/15 07:17:18;;;;;;;31.05;27.80;;;;;;;23.33;67.18;99518.50;4956954;29;20035;-73
2022/08/15 07:19:48;;;;;;;25.17;22.60;;;;;;;23.50;67.33;99519.06;4973059;28;20632;-73
2022/08/15 07:22:23;;;;;;;28.60;25.90;;;;;;;23.71;66.76;99520.13;4955278;29;20034;-73
2022/08/15 07:24:53;;;;;;;22.65;20.52;;;;;;;23.84;65.26;99518.25;4958108;28;20039;-73
2022/08/15 07:27:32;;;;;;;26.30;24.05;;;;;;;23.97;65.04;99518.16;4973868;28;20031;-73
2022/08/15 07:30:20;;;;;;;27.85;25.45;;;;;;;24.13;64.48;99514.22;4958018;28;20248;-73
2022/08/15 07:32:52;;;;;;;25.35;23.00;;;;;;;24.31;63.30;99515.47;4971579;28;20046;-73
2022/08/15 07:35:39;;;;;;;21.70;19.65;;;;;;;24.41;62.05;99511.06;4957172;28;20037;-73
2022/08/15 07:38:09;;;;;;;21.98;19.77;;;;;;;24.51;62.13;99511.22;4949611;29;20040;-73
2022/08/15 07:40:38;;;;;;;26.38;23.75;;;;;;;24.36;60.99;99512.41;4969900;28;20587;-73
2022/08/15 07:43:28;;;;;;;29.13;26.23;;;;;;;24.53;61.63;99517.34;4957518;29;20043;-73
2022/08/15 07:46:11;;;;;;;23.67;21.42;;;;;;;24.77;60.92;99516.38;4971815;28;20125;-73
2022/08/15 07:48:38;;;;;;;23.80;21.33;;;;;;;24.85;60.93;99513.91;4954567;29;20027;-72
2022/08/15 07:51:14;;;;;;;27.15;24.83;;;;;;;25.05;60.21;99514.97;4956326;29;20042;-74
2022/08/15 07:53:58;;;;;;;24.05;21.65;;;;;;;25.17;58.96;99515.81;4957364;29;20031;-73
2022/08/15 07:56:32;;;;;;;24.15;22.13;;;;;;;25.24;59.13;99512.47;4973868;28;20039;-72
2022/08/15 07:59:15;;;;;;;24.30;21.88;;;;;;;25.32;58.37;99520.78;4957626;29;20054;-73
2022/08/15 08:01:46;;;;;;;29.77;26.70;;;;;;;25.42;58.27;99517.34;4957404;28;20059;-73
2022/08/15 08:04:18;;;;;;;24.08;21.83;;;;;;;25.40;57.82;99503.94;4957723;28;20085;-72
2022/08/15 08:07:16;;;;;;;21.80;19.95;;;;;;;25.25;58.24;99511.47;4957452;29;20581;-73
2022/08/15 08:09:47;;;;;;;26.92;24.25;;;;;;;25.52;58.28;99508.31;4944783;29;20098;-73
2022/08/15 08:12:32;;;;;;;22.77;21.05;;;;;;;25.80;57.01;99506.78;4968675;28;20158;-73
2022/08/15 08:15:14;;;;;;;29.10;23.05;;;;;;;25.95;56.20;99493.84;4953033;29;20031;-73
2022/08/15 08:18:03;;;;;;;24.48;22.48;;;;;;;26.13;55.90;99502.22;4965987;28;20482;-73
2022/08/15 08:20:50;;;;;;;22.17;20.38;;;;;;;26.20;55.15;99502.56;4951369;29;20529;-73
2022/08/15 08:23:26;;;;;;;26.55;24.17;;;;;;;26.33;55.76;99499.59;4955001;28;20090;-73
2022/08/15 08:26:09;;;;;;;29.73;26.98;;;;;;;26.45;55.21;99498.53;4951798;29;20722;-73
2022/08/15 08:29:01;;;;;;;20.33;18.67;;;;;;;26.53;53.04;99498.72;4952178;29;20053;-73
2022/08/15 08:31:58;;;;;;;21.48;19.50;;;;;;;26.54;53.49;99495.03;4950921;29;20118;-73
2022/08/15 08:34:39;;;;;;;21.67;19.20;;;;;;;26.69;52.91;99491.94;4953476;29;20178;-73
2022/08/15 08:37:32;;;;;;;23.10;21.00;;;;;;;26.83;52.79;99494.28;4951030;29;20193;-74
2022/08/15 08:43:32;;;;;;;34.85;31.48;;;;;;;27.14;50.96;99492.31;4954706;29;20035;-74
2022/08/15 08:46:11;;;;;;;26.58;24.05;;;;;;;27.18;51.36;99495.66;4951361;29;20043;-75
2022/08/15 08:48:55;;;;;;;29.13;26.23;;;;;;;27.35;51.14;99492.22;4954608;28;20039;-74
2022/08/15 08:51:56;;;;;;;28.88;26.10;;;;;;;27.58;49.66;99494.66;4952796;29;20054;-75
2022/08/15 08:54:38;;;;;;;26.20;23.77;;;;;;;27.73;49.83;99493.22;4954566;29;20070;-73
2022/08/15 08:57:09;;;;;;;22.92;17.00;;;;;;;27.79;50.14;99483.63;4950205;28;20482;-74
2022/08/15 08:59:53;;;;;;;18.50;16.80;;;;;;;27.86;49.22;99485.66;4954825;28;20101;-73
2022/08/15 09:02:29;;;;;;;26.02;23.73;;;;;;;27.95;48.50;99476.63;4954018;29;20042;-73
2022/08/15 09:05:09;;;;;;;21.38;19.13;;;;;;;28.09;48.10;99474.47;4954406;28;20043;-74
2022/08/15 09:07:48;;;;;;;22.40;20.20;;;;;;;28.25;48.14;99480.13;4969543;28;20046;-73
2022/08/15 09:10:22;;;;;;;17.42;15.70;;;;;;;28.33;46.96;99479.38;4953069;28;20090;-74
2022/08/15 09:15:36;;;;;;;18.00;16.50;;;;;;;28.30;47.51;99480.53;4954274;29;20118;-73
2022/08/15 09:18:08;;;;;;;24.77;22.45;;;;;;;28.55;46.40;99480.88;4952957;28;20051;-74
2022/08/15 09:20:38;;;;;;;22.80;20.35;;;;;;;28.86;46.44;99478.72;4952915;29;20520;-73
2022/08/15 09:23:06;;;;;;;19.08;17.15;;;;;;;28.91;44.76;99476.41;4954113;28;20031;-74
2022/08/15 09:25:33;;;;;;;15.93;14.35;;;;;;;29.02;45.41;99468.03;4953624;28;20047;-74
2022/08/15 09:28:09;;;;;;;16.15;14.57;;;;;;;28.94;44.38;99467.09;4954316;28;20546;-74
2022/08/15 09:30:34;;;;;;;19.08;17.58;;;;;;;28.81;45.52;99468.31;4954399;28;20047;-73
2022/08/15 09:33:30;;;;;;;24.33;22.25;;;;;;;28.98;45.11;99473.94;4952786;28;20074;-74
2022/08/15 09:36:16;;;;;;;24.17;21.67;;;;;;;29.17;44.57;99476.53;4951932;29;20045;-74
2022/08/15 09:38:56;;;;;;;23.60;21.17;;;;;;;29.23;43.59;99481.34;4950192;29;20047;-74
2022/08/15 09:41:33;;;;;;;26.15;23.33;;;;;;;29.39;43.35;99477.06;4952536;28;20090;-74
2022/08/15 09:44:32;;;;;;;22.75;20.65;;;;;;;29.48;41.61;99465.28;4952244;29;20122;-72
2022/08/15 09:47:20;;;;;;;18.88;16.90;;;;;;;29.25;43.26;99468.47;4952584;29;20429;-73
2022/08/15 09:50:10;;;;;;;19.63;17.88;;;;;;;29.49;43.04;99466.97;4950146;29;20023;-74
2022/08/15 09:52:38;;;;;;;17.10;15.70;;;;;;;29.54;43.48;99461.06;4951753;29;20074;-74
2022/08/15 09:55:20;;;;;;;19.63;17.83;;;;;;;29.70;42.48;99458.50;4953281;28;20039;-74
2022/08/15 09:57:49;;;;;;;24.65;20.20;;;;;;;29.93;42.10;99450.69;4949217;29;20058;-73
2022/08/15 10:00:17;;;;;;;16.50;15.10;;;;;;;29.95;41.79;99451.38;4952124;28;20050;-72
2022/08/15 10:02:49;;;;;;;16.92;15.20;;;;;;;30.05;41.23;99445.81;4952956;28;20088;-73
2022/08/15 10:05:42;;;;;;;21.55;19.65;;;;;;;30.27;40.70;99439.84;4953105;28;20069;-74
2022/08/15 10:08:09;;;;;;;25.35;22.63;;;;;;;30.40;41.69;99439.41;4952158;29;20039;-74
2022/08/15 10:10:37;;;;;;;25.40;22.90;;;;;;;30.50;40.62;99440.13;4951579;28;20050;-74
2022/08/15 10:13:39;;;;;;;23.98;21.88;;;;;;;30.57;40.50;99438.44;4952074;28;20047;-74
2022/08/15 10:16:38;;;;;;;19.42;17.30;;;;;;;30.73;39.01;99431.34;4951206;29;20478;-72
2022/08/15 10:19:06;;;;;;;19.15;17.65;;;;;;;30.81;40.71;99423.22;4952551;29;20098;-74
2022/08/15 10:21:41;;;;;;;21.52;19.65;;;;;;;30.81;39.71;99425.94;4952649;29;20043;-73
2022/08/15 10:24:22;;;;;;;18.98;17.50;;;;;;;31.01;38.58;99426.50;4953516;28;20102;-73
2022/08/15 10:27:07;;;;;;;19.27;17.55;;;;;;;31.19;37.70;99413.56;4949796;29;20039;-73
2022/08/15 10:29:34;;;;;;;16.10;14.70;;;;;;;31.00;38.12;99414.75;4949452;29;20031;-73
2022/08/15 10:32:01;;;;;;;23.40;21.40;;;;;;;30.96;38.42;99409.81;4950435;29;20035;-73
2022/08/15 10:34:38;;;;;;;22.20;20.35;;;;;;;31.26;37.25;99408.31;4950155;28;20406;-73
2022/08/15 10:37:15;;;;;;;17.20;15.80;;;;;;;31.42;36.64;99402.88;4952407;28;20050;-73
2022/08/15 10:40:02;;;;;;;20.27;18.65;;;;;;;31.65;36.85;99396.75;4949034;28;20102;-73
2022/08/15 10:42:49;;;;;;;18.10;16.70;;;;;;;31.69;36.77;99386.31;4951965;29;20520;-73
2022/08/15 10:45:36;;;;;;;19.27;17.88;;;;;;;31.68;36.04;99385.47;4951715;29;20050;-73
2022/08/15 10:48:26;;;;;;;18.80;17.05;;;;;;;31.72;35.79;99383.25;4951548;29;20039;-73
2022/08/15 10:51:18;;;;;;;17.67;16.35;;;;;;;31.86;36.29;99388.00;4950890;29;20050;-73
2022/08/15 10:54:02;;;;;;;18.83;17.17;;;;;;;31.86;36.29;99380.66;4950905;29;20031;-72
2022/08/15 10:56:33;;;;;;;18.10;16.33;;;;;;;31.94;35.46;99376.22;4951047;29;20053;-73
2022/08/15 10:59:03;;;;;;;19.58;17.13;;;;;;;31.95;34.71;99373.31;4948111;28;20395;-73
2022/08/15 11:01:32;;;;;;;17.50;16.20;;;;;;;31.90;34.62;99374.84;4948281;29;20043;-73
2022/08/15 11:04:02;;;;;;;18.55;17.25;;;;;;;31.99;34.78;99374.69;4952562;28;20035;-71
2022/08/15 11:06:28;;;;;;;18.70;17.42;;;;;;;32.11;34.49;99377.88;4952744;28;20059;-71
2022/08/15 11:08:57;;;;;;;21.90;20.33;;;;;;;32.14;33.45;99373.94;4950775;29;20027;-71
2022/08/15 11:11:26;;;;;;;18.13;16.83;;;;;;;31.80;34.36;99377.75;4951007;28;20039;-71
2022/08/15 11:13:56;;;;;;;20.70;19.30;;;;;;;31.84;34.38;99374.53;4951039;28;20094;-71
2022/08/15 11:16:35;;;;;;;23.33;21.23;;;;;;;32.08;34.62;99370.03;4951372;28;20047;-72
2022/08/15 11:19:15;;;;;;;18.95;17.23;;;;;;;32.27;33.68;99363.31;4950028;29;20501;-71
2022/08/15 11:21:48;;;;;;;17.52;16.42;;;;;;;32.37;33.58;99358.47;4950702;28;20055;-71
2022/08/15 11:24:23;;;;;;;19.30;17.80;;;;;;;32.64;33.55;99362.63;4950175;29;20114;-71
2022/08/15 11:26:48;;;;;;;21.70;20.10;;;;;;;33.00;33.83;99359.31;4950795;28;20062;-71
2022/08/15 11:29:15;;;;;;;19.98;18.63;;;;;;;32.95;32.17;99359.84;4951340;29;20062;-71
2022/08/15 11:31:50;;;;;;;26.05;23.85;;;;;;;33.10;33.66;99356.34;4952463;28;20491;-71
2022/08/15 11:34:35;;;;;;;23.00;21.17;;;;;;;33.41;32.04;99352.69;4951974;29;20581;-72
2022/08/15 11:37:09;;;;;;;25.05;23.08;;;;;;;33.88;32.31;99357.84;4951438;29;20035;-72
2022/08/15 11:39:38;;;;;;;28.23;25.63;;;;;;;34.49;31.26;99349.38;4946078;29;20075;-72
2022/08/15 11:42:07;;;;;;;30.77;28.13;;;;;;;34.98;31.20;99345.06;4952788;28;20042;-72
2022/08/15 11:44:49;;;;;;;32.15;29.80;;;;;;;35.29;30.14;99345.63;4952672;28;20043;-72
2022/08/15 11:47:16;;;;;;;24.35;22.65;;;;;;;35.48;28.69;99343.22;4951155;28;20046;-72
2022/08/15 11:49:48;;;;;;;26.67;24.92;;;;;;;35.52;27.70;99339.03;4956293;28;20035;-72
2022/08/15 11:52:22;;;;;;;32.85;30.95;;;;;;;35.38;28.17;99332.59;4952465;29;20040;-72
2022/08/15 11:55:11;;;;;;;33.13;30.95;;;;;;;34.78;28.32;99336.66;4956123;28;20502;-72